createdAt,value
2022-11-02T00:00:31.472Z,2.37
2022-11-02T00:02:59.569Z,1.83
2022-11-02T00:05:33.991Z,1.70
2022-11-02T00:08:03.286Z,1.17
2022-11-02T00:10:31.397Z,1.50
2022-11-02T00:13:01.673Z,1.30
2022-11-02T00:15:32.653Z,1.13
2022-11-02T00:20:42.796Z,1.40
2022-11-02T00:23:16.639Z,1.33
2022-11-02T00:25:50.100Z,0.93
2022-11-02T00:28:21.308Z,1.00
2022-11-02T00:30:51.310Z,0.90
2022-11-02T00:33:19.248Z,0.60
2022-11-02T00:35:49.349Z,0.90
2022-11-02T00:38:38.526Z,0.80
2022-11-02T00:41:08.616Z,1.00
2022-11-02T00:43:40.664Z,0.90
2022-11-02T00:46:14.501Z,0.93
2022-11-02T00:49:03.148Z,0.97
2022-11-02T00:51:33.051Z,1.00
2022-11-02T00:54:05.119Z,0.93
2022-11-02T00:56:36.749Z,1.43
2022-11-02T00:59:07.429Z,0.97
2022-11-02T01:01:44.999Z,1.07
2022-11-02T01:04:16.440Z,0.93
2022-11-02T01:06:50.516Z,0.83
2022-11-02T01:09:21.029Z,1.10
2022-11-02T01:11:52.975Z,1.10
2022-11-02T01:14:23.037Z,0.63
2022-11-02T01:17:44.906Z,1.53
2022-11-02T01:20:13.635Z,0.93
2022-11-02T01:22:52.337Z,1.47
2022-11-02T01:25:25.135Z,1.17
2022-11-02T01:28:29.258Z,1.73
2022-11-02T01:31:04.119Z,1.50
2022-11-02T01:33:38.057Z,1.00
2022-11-02T01:36:08.333Z,1.30
2022-11-02T01:38:38.253Z,1.67
2022-11-02T01:41:12.736Z,1.33
2022-11-02T01:43:45.277Z,1.10
2022-11-02T01:46:24.757Z,0.90
2022-11-02T01:48:59.077Z,1.20
2022-11-02T01:51:31.798Z,1.30
2022-11-02T01:54:07.344Z,1.17
2022-11-02T01:56:57.251Z,1.40
2022-11-02T01:59:32.072Z,1.00
2022-11-02T02:02:21.527Z,1.20
2022-11-02T02:04:53.678Z,1.83
2022-11-02T02:07:24.982Z,1.33
2022-11-02T02:09:57.362Z,1.20
2022-11-02T02:12:27.528Z,1.40
2022-11-02T02:15:15.878Z,1.37
2022-11-02T02:18:28.874Z,1.33
2022-11-02T02:21:10.323Z,1.50
2022-11-02T02:24:16.045Z,1.30
2022-11-02T02:27:00.484Z,1.17
2022-11-02T02:29:36.663Z,1.20
2022-11-02T02:32:17.672Z,1.30
2022-11-02T02:34:54.751Z,1.60
2022-11-02T02:37:30.094Z,1.23
2022-11-02T02:40:06.418Z,1.30
2022-11-02T02:42:37.699Z,1.97
2022-11-02T02:45:14.738Z,1.33
2022-11-02T02:47:52.817Z,1.27
2022-11-02T02:50:24.316Z,1.00
2022-11-02T02:52:54.734Z,1.63
2022-11-02T02:55:31.431Z,1.70
2022-11-02T02:58:02.621Z,1.80
2022-11-02T03:00:36.367Z,1.50
2022-11-02T03:03:06.628Z,1.60
2022-11-02T03:05:39.751Z,1.40
2022-11-02T03:08:14.269Z,1.77
2022-11-02T03:10:49.288Z,2.00
2022-11-02T03:13:36.601Z,1.80
2022-11-02T03:16:16.328Z,1.80
2022-11-02T03:18:50.344Z,2.27
2022-11-02T03:21:29.343Z,2.27
2022-11-02T03:24:02.434Z,2.20
2022-11-02T03:26:34.578Z,1.87
2022-11-02T03:29:09.098Z,2.40
2022-11-02T03:31:42.920Z,1.90
2022-11-02T03:34:21.152Z,2.30
2022-11-02T03:36:55.256Z,2.67
2022-11-02T03:39:32.623Z,2.20
2022-11-02T03:42:12.140Z,2.37
2022-11-02T03:44:43.871Z,2.03
2022-11-02T03:47:17.277Z,2.57
2022-11-02T03:49:47.136Z,2.43
2022-11-02T03:52:21.723Z,2.73
2022-11-02T03:54:56.584Z,2.67
2022-11-02T03:57:48.378Z,2.57
2022-11-02T04:00:23.300Z,2.27
2022-11-02T04:02:56.741Z,1.70
2022-11-02T04:05:51.251Z,1.77
2022-11-02T04:08:24.565Z,1.77
2022-11-02T04:11:12.298Z,1.57
2022-11-02T04:14:01.368Z,2.23
2022-11-02T04:16:34.298Z,1.53
2022-11-02T04:19:37.386Z,1.43
2022-11-02T04:22:23.480Z,1.83
2022-11-02T04:25:11.908Z,1.70
2022-11-02T04:28:00.885Z,2.43
2022-11-02T04:30:28.896Z,1.83
2022-11-02T04:33:15.820Z,1.73
2022-11-02T04:35:45.923Z,1.87
2022-11-02T04:38:32.825Z,1.90
2022-11-02T04:41:16.064Z,1.50
2022-11-02T04:43:44.486Z,2.33
2022-11-02T04:46:14.992Z,1.90
2022-11-02T04:48:44.614Z,1.80
2022-11-02T04:51:16.101Z,1.53
2022-11-02T04:53:46.745Z,1.77
2022-11-02T04:56:23.514Z,1.60
2022-11-02T04:58:52.853Z,1.80
2022-11-02T05:01:23.535Z,1.77
2022-11-02T05:03:55.948Z,1.50
2022-11-02T05:06:26.838Z,1.60
2022-11-02T05:08:56.096Z,1.40
2022-11-02T05:11:44.487Z,1.00
2022-11-02T05:14:13.163Z,1.60
2022-11-02T05:16:42.834Z,1.30
2022-11-02T05:19:12.309Z,1.20
2022-11-02T05:21:42.088Z,1.10
2022-11-02T05:24:10.077Z,1.07
2022-11-02T05:26:40.855Z,1.27
2022-11-02T05:29:12.690Z,1.00
2022-11-02T05:31:43.895Z,1.20
2022-11-02T05:34:14.828Z,0.97
2022-11-02T05:36:48.147Z,1.40
2022-11-02T05:39:38.644Z,1.80
2022-11-02T05:42:09.691Z,1.70
2022-11-02T05:44:37.753Z,1.27
2022-11-02T05:47:06.062Z,1.80
2022-11-02T05:49:34.804Z,1.73
2022-11-02T05:52:04.139Z,1.20
2022-11-02T05:54:32.121Z,1.50
2022-11-02T05:57:00.157Z,1.67
2022-11-02T05:59:28.107Z,1.40
2022-11-02T06:01:56.070Z,1.50
2022-11-02T06:04:24.088Z,1.70
2022-11-02T06:06:52.196Z,1.33
2022-11-02T06:09:21.565Z,1.53
2022-11-02T06:11:49.701Z,1.33
2022-11-02T06:14:17.651Z,1.30
2022-11-02T06:16:45.870Z,1.70
2022-11-02T06:21:45.785Z,1.30
2022-11-02T06:24:16.410Z,1.40
2022-11-02T06:26:46.870Z,1.70
2022-11-02T06:29:15.038Z,1.80
2022-11-02T06:31:43.417Z,1.20
2022-11-02T06:34:11.343Z,1.50
2022-11-02T06:36:39.349Z,1.57
2022-11-02T06:39:07.288Z,1.20
2022-11-02T06:41:35.383Z,1.70
2022-11-02T06:44:05.004Z,1.17
2022-11-02T06:46:33.257Z,1.20
2022-11-02T06:49:01.394Z,1.07
2022-11-02T06:51:29.296Z,1.70
2022-11-02T06:53:57.313Z,1.67
2022-11-02T06:56:25.235Z,1.07
2022-11-02T06:58:54.370Z,1.77
2022-11-02T07:01:23.822Z,1.70
2022-11-02T07:03:51.941Z,1.43
2022-11-02T07:06:19.913Z,1.80
2022-11-02T07:08:49.173Z,1.10
2022-11-02T07:11:17.356Z,1.50
2022-11-02T07:13:45.655Z,1.43
2022-11-02T07:16:13.799Z,1.80
2022-11-02T07:18:43.542Z,1.30
2022-11-02T07:21:12.525Z,1.30
2022-11-02T07:23:40.735Z,1.63
2022-11-02T07:26:08.753Z,1.70
2022-11-02T07:28:38.421Z,1.30
2022-11-02T07:31:06.750Z,1.20
2022-11-02T07:33:34.984Z,1.40
2022-11-02T07:36:06.314Z,1.90
2022-11-02T07:38:35.568Z,1.80
2022-11-02T07:41:03.776Z,1.87
2022-11-02T07:43:31.916Z,1.87
2022-11-02T07:45:59.876Z,1.90
2022-11-02T07:48:27.928Z,1.67
2022-11-02T07:50:58.614Z,1.63
2022-11-02T07:53:28.004Z,1.60
2022-11-02T07:55:56.273Z,1.13
2022-11-02T07:58:24.265Z,1.80
2022-11-02T08:00:55.950Z,1.60
2022-11-02T08:03:28.918Z,1.33
2022-11-02T08:05:57.055Z,1.40
2022-11-02T08:08:26.904Z,1.10
2022-11-02T08:10:55.015Z,1.43
2022-11-02T08:13:26.064Z,1.67
2022-11-02T08:15:55.013Z,1.50
2022-11-02T08:18:24.488Z,1.20
2022-11-02T08:20:54.262Z,1.70
2022-11-02T08:23:24.924Z,1.70
2022-11-02T08:25:55.402Z,1.83
2022-11-02T08:28:26.070Z,1.67
2022-11-02T08:30:54.261Z,1.57
2022-11-02T08:33:22.631Z,1.70
2022-11-02T08:35:50.837Z,2.00
2022-11-02T08:38:22.365Z,1.20
2022-11-02T08:40:50.446Z,1.37
2022-11-02T08:43:19.852Z,1.87
2022-11-02T08:46:13.644Z,1.70
2022-11-02T08:48:35.713Z,1.73
2022-11-02T08:51:05.489Z,1.67
2022-11-02T08:53:33.432Z,1.50
2022-11-02T08:56:01.622Z,1.50
2022-11-02T08:58:30.887Z,1.63
2022-11-02T09:00:59.072Z,1.80
2022-11-02T09:03:28.258Z,1.43
2022-11-02T09:06:00.799Z,1.63
2022-11-02T09:08:29.440Z,1.40
2022-11-02T09:11:00.525Z,1.97
2022-11-02T09:13:30.579Z,1.50
2022-11-02T09:16:00.217Z,1.60
2022-11-02T09:18:28.519Z,1.97
2022-11-02T09:20:56.992Z,1.87
2022-11-02T09:23:24.946Z,1.37
2022-11-02T09:25:53.585Z,1.70
2022-11-02T09:28:21.657Z,1.57
2022-11-02T09:30:51.068Z,1.53
2022-11-02T09:33:19.214Z,1.23
2022-11-02T09:35:49.595Z,1.47
2022-11-02T09:38:19.185Z,1.30
2022-11-02T09:40:53.157Z,1.83
2022-11-02T09:43:32.586Z,1.53
2022-11-02T09:46:04.991Z,1.80
2022-11-02T09:48:36.687Z,1.50
2022-11-02T09:51:10.741Z,1.87
2022-11-02T09:53:51.343Z,2.20
2022-11-02T09:56:20.812Z,1.77
2022-11-02T09:58:54.072Z,1.93
2022-11-02T10:01:36.546Z,2.00
2022-11-02T10:04:44.910Z,1.60
2022-11-02T10:07:22.733Z,1.83
2022-11-02T10:09:55.808Z,2.00
2022-11-02T10:12:30.035Z,1.25
2022-11-02T10:15:04.492Z,1.60
2022-11-02T10:17:37.757Z,1.43
2022-11-02T10:20:12.301Z,1.70
2022-11-02T10:22:43.609Z,1.83
2022-11-02T10:25:16.632Z,1.63
2022-11-02T10:27:48.914Z,1.30
2022-11-02T10:30:19.281Z,1.37
2022-11-02T10:32:51.703Z,1.47
2022-11-02T10:35:45.482Z,1.17
2022-11-02T10:38:28.468Z,1.60
2022-11-02T10:41:13.550Z,1.73
2022-11-02T10:44:04.653Z,1.80
2022-11-02T10:46:49.357Z,1.63
2022-11-02T10:49:31.031Z,1.60
2022-11-02T10:51:59.459Z,2.17
2022-11-02T10:54:31.725Z,1.80
2022-11-02T10:57:15.164Z,1.70
2022-11-02T10:59:43.239Z,1.67
2022-11-02T11:02:14.546Z,1.73
2022-11-02T11:04:45.017Z,1.70
2022-11-02T11:07:17.924Z,1.70
2022-11-02T11:09:52.825Z,1.90
2022-11-02T11:12:25.913Z,1.50
2022-11-02T11:20:39.025Z,1.60
2022-11-02T11:23:18.935Z,1.95
2022-11-02T11:25:56.534Z,1.70
2022-11-02T11:28:27.760Z,1.70
2022-11-02T11:31:10.870Z,1.85
2022-11-02T11:33:53.512Z,3.20
2022-11-02T11:36:31.976Z,2.33
2022-11-02T11:39:02.385Z,1.50
2022-11-02T11:41:31.983Z,2.00
2022-11-02T11:44:01.203Z,1.60
2022-11-02T11:46:41.362Z,1.77
2022-11-02T11:49:31.077Z,1.47
2022-11-02T11:52:06.020Z,1.70
2022-11-02T11:54:36.276Z,1.90
2022-11-02T11:57:24.987Z,2.00
2022-11-02T11:59:55.552Z,1.47
2022-11-02T12:02:29.870Z,2.13
2022-11-02T12:05:03.553Z,2.20
2022-11-02T12:07:59.590Z,1.80
2022-11-02T12:10:43.795Z,1.80
2022-11-02T12:13:28.077Z,2.03
2022-11-02T12:16:10.768Z,1.63
2022-11-02T12:19:11.608Z,1.90
2022-11-02T12:22:05.502Z,1.90
2022-11-02T12:24:53.455Z,2.33
2022-11-02T12:27:32.363Z,1.80
2022-11-02T12:30:14.793Z,2.30
2022-11-02T12:32:56.864Z,2.30
2022-11-02T12:35:35.299Z,2.10
2022-11-02T12:38:20.716Z,1.97
2022-11-02T12:41:01.112Z,2.60
2022-11-02T12:43:41.133Z,1.73
2022-11-02T12:46:28.204Z,2.15
2022-11-02T12:49:08.807Z,2.03
2022-11-02T12:51:44.869Z,1.80
2022-11-02T12:54:18.095Z,1.97
2022-11-02T12:56:52.356Z,2.03
2022-11-02T12:59:27.224Z,2.20
2022-11-02T13:01:59.340Z,2.20
2022-11-02T13:04:36.954Z,2.03
2022-11-02T13:07:13.364Z,1.90
2022-11-02T13:09:51.353Z,2.00
2022-11-02T13:12:24.203Z,2.03
2022-11-02T13:14:57.233Z,2.73
2022-11-02T13:17:31.438Z,2.27
2022-11-02T13:20:02.011Z,2.17
2022-11-02T13:22:35.245Z,2.63
2022-11-02T13:25:14.112Z,2.40
2022-11-02T13:27:49.708Z,2.10
2022-11-02T13:30:19.438Z,2.15
2022-11-02T13:32:52.723Z,2.60
2022-11-02T13:35:28.802Z,2.83
2022-11-02T13:38:03.285Z,2.65
2022-11-02T13:40:39.141Z,2.90
2022-11-02T13:43:29.634Z,2.20
2022-11-02T13:46:15.070Z,2.50
2022-11-02T13:49:02.391Z,2.15
2022-11-02T13:51:38.775Z,2.60
2022-11-02T13:54:14.235Z,2.00
2022-11-02T13:57:02.737Z,2.20
2022-11-02T13:59:42.080Z,2.40
2022-11-02T14:02:17.825Z,2.30
2022-11-02T14:04:48.524Z,3.77
2022-11-02T14:07:24.700Z,2.13
2022-11-02T14:09:59.113Z,2.25
2022-11-02T14:12:41.591Z,2.77
2022-11-02T14:15:48.454Z,2.43
2022-11-02T14:18:31.106Z,2.87
2022-11-02T14:20:59.985Z,2.83
2022-11-02T14:23:41.065Z,2.47
2022-11-02T14:26:31.463Z,1.60
2022-11-02T14:29:00.164Z,2.00
2022-11-02T14:31:46.916Z,2.23
2022-11-02T14:34:52.050Z,3.20
2022-11-02T14:37:44.865Z,2.17
2022-11-02T14:40:26.165Z,2.00
2022-11-02T14:43:10.878Z,2.42
2022-11-02T14:45:53.394Z,2.27
2022-11-02T14:48:21.811Z,2.13
2022-11-02T14:51:05.773Z,2.60
2022-11-02T14:53:36.773Z,2.00
2022-11-02T14:56:05.536Z,2.53
2022-11-02T14:58:36.496Z,2.43
2022-11-02T15:01:06.063Z,3.00
2022-11-02T15:03:38.800Z,2.22
2022-11-02T15:06:17.857Z,2.20
2022-11-02T15:08:55.099Z,1.90
2022-11-02T15:11:59.243Z,1.87
2022-11-02T15:14:59.427Z,1.87
2022-11-02T15:17:52.638Z,2.37
2022-11-02T15:20:31.637Z,1.80
2022-11-02T15:23:29.950Z,2.27
2022-11-02T15:25:59.847Z,1.80
2022-11-02T15:28:30.618Z,1.90
2022-11-02T15:31:03.863Z,1.80
2022-11-02T15:33:38.308Z,2.23
2022-11-02T15:36:10.227Z,1.80
2022-11-02T15:38:40.553Z,2.47
2022-11-02T15:41:21.598Z,2.13
2022-11-02T15:44:11.983Z,1.97
2022-11-02T15:46:50.544Z,1.80
2022-11-02T15:49:32.078Z,1.60
2022-11-02T15:52:06.755Z,2.00
2022-11-02T15:54:54.239Z,1.73
2022-11-02T15:57:33.162Z,1.70
2022-11-02T16:00:18.273Z,1.63
2022-11-02T16:02:49.195Z,2.53
2022-11-02T16:05:23.763Z,1.73
2022-11-02T16:10:42.910Z,2.17
2022-11-02T16:13:17.784Z,2.37
2022-11-02T16:15:48.562Z,2.00
2022-11-02T16:18:27.201Z,2.10
2022-11-02T16:20:57.547Z,2.20
2022-11-02T16:23:28.201Z,2.37
2022-11-02T16:26:00.613Z,2.30
2022-11-02T16:28:30.247Z,1.47
2022-11-02T16:31:15.760Z,2.07
2022-11-02T16:33:48.652Z,1.63
2022-11-02T16:36:19.483Z,1.90
2022-11-02T16:38:52.837Z,2.10
2022-11-02T16:41:23.122Z,1.77
2022-11-02T16:43:52.537Z,2.43
2022-11-02T16:46:33.412Z,2.30
2022-11-02T16:49:13.927Z,1.50
2022-11-02T16:51:48.588Z,2.13
2022-11-02T16:54:28.078Z,2.33
2022-11-02T16:57:04.040Z,1.63
2022-11-02T16:59:37.471Z,1.73
2022-11-02T17:02:06.904Z,2.10
2022-11-02T17:04:42.171Z,1.80
2022-11-02T17:07:15.431Z,1.90
2022-11-02T17:09:44.300Z,1.90
2022-11-02T17:12:17.800Z,1.70
2022-11-02T17:14:49.301Z,1.80
2022-11-02T17:17:39.980Z,1.70
2022-11-02T17:20:24.628Z,2.70
2022-11-02T17:22:56.940Z,2.20
2022-11-02T17:25:27.830Z,2.20
2022-11-02T17:28:05.535Z,2.03
2022-11-02T17:30:47.353Z,2.10
2022-11-02T17:33:27.188Z,1.70
2022-11-02T17:35:57.501Z,2.47
2022-11-02T17:38:27.771Z,1.97
2022-11-02T17:40:56.332Z,2.00
2022-11-02T17:43:24.811Z,1.90
2022-11-02T17:45:57.359Z,1.97
2022-11-02T17:48:26.468Z,1.73
2022-11-02T17:50:59.877Z,1.97
2022-11-02T17:53:28.540Z,1.87
2022-11-02T17:55:57.628Z,2.07
2022-11-02T17:58:29.186Z,2.10
2022-11-02T18:00:57.464Z,1.93
2022-11-02T18:03:31.174Z,1.70
2022-11-02T18:06:00.716Z,1.73
2022-11-02T18:08:29.226Z,1.80
2022-11-02T18:10:57.491Z,1.87
2022-11-02T18:13:27.224Z,1.93
2022-11-02T18:15:56.508Z,1.90
2022-11-02T18:18:24.417Z,2.30
2022-11-02T18:20:52.429Z,1.60
2022-11-02T18:23:21.556Z,1.77
2022-11-02T18:25:51.809Z,2.10
2022-11-02T18:28:23.280Z,2.03
2022-11-02T18:30:53.117Z,2.40
2022-11-02T18:33:21.242Z,1.93
2022-11-02T18:35:51.835Z,2.00
2022-11-02T18:38:20.107Z,2.10
2022-11-02T18:40:48.413Z,2.43
2022-11-02T18:43:16.501Z,2.33
2022-11-02T18:45:44.604Z,1.80
2022-11-02T18:48:16.371Z,3.07
2022-11-02T18:50:44.618Z,2.40
2022-11-02T18:53:13.053Z,2.23
2022-11-02T18:55:41.287Z,2.10
2022-11-02T18:58:11.523Z,1.77
2022-11-02T19:00:43.053Z,1.83
2022-11-02T19:03:42.090Z,1.70
2022-11-02T19:06:27.979Z,2.03
2022-11-02T19:09:14.102Z,1.50
2022-11-02T19:11:48.677Z,2.13
2022-11-02T19:14:18.042Z,2.10
2022-11-02T19:16:46.639Z,1.77
2022-11-02T19:19:20.490Z,1.97
2022-11-02T19:22:12.782Z,2.40
2022-11-02T19:24:43.318Z,2.00
2022-11-02T19:27:17.845Z,2.00
2022-11-02T19:29:47.344Z,2.37
2022-11-02T19:32:16.300Z,2.60
2022-11-02T19:34:47.107Z,2.20
2022-11-02T19:37:21.109Z,1.90
2022-11-02T19:39:49.573Z,2.30
2022-11-02T19:42:17.772Z,1.70
2022-11-02T19:45:07.368Z,2.37
2022-11-02T19:47:35.484Z,2.43
2022-11-02T19:50:06.739Z,2.50
2022-11-02T19:52:35.827Z,2.13
2022-11-02T19:55:04.205Z,2.00
2022-11-02T19:57:40.280Z,2.30
2022-11-02T20:00:11.254Z,2.20
2022-11-02T20:02:46.651Z,2.40
2022-11-02T20:05:16.241Z,2.40
2022-11-02T20:07:44.963Z,2.40
2022-11-02T20:10:15.663Z,2.20
2022-11-02T20:13:10.545Z,2.23
2022-11-02T20:15:44.369Z,2.80
2022-11-02T20:18:19.557Z,2.30
2022-11-02T20:21:44.772Z,2.33
2022-11-02T20:24:13.733Z,2.47
2022-11-02T20:26:43.157Z,2.37
2022-11-02T20:29:20.784Z,2.97
2022-11-02T20:31:50.247Z,2.97
2022-11-02T20:34:21.843Z,2.50
2022-11-02T20:36:55.798Z,2.10
2022-11-02T20:39:27.579Z,2.50
2022-11-02T20:42:12.448Z,2.53
2022-11-02T20:44:50.446Z,2.60
2022-11-02T20:47:19.973Z,2.33
2022-11-02T20:49:50.906Z,2.60
2022-11-02T20:52:44.458Z,2.20
2022-11-02T20:55:18.606Z,2.80
2022-11-02T20:57:52.446Z,2.57
2022-11-02T21:00:42.785Z,2.40
2022-11-02T21:03:12.330Z,2.20
2022-11-02T21:05:40.756Z,3.00
2022-11-02T21:08:16.477Z,2.40
2022-11-02T21:10:47.502Z,1.87
2022-11-02T21:13:32.857Z,2.60
2022-11-02T21:16:04.968Z,2.93
2022-11-02T21:18:35.644Z,2.80
2022-11-02T21:21:08.345Z,2.30
2022-11-02T21:23:40.862Z,2.60
2022-11-02T21:26:10.731Z,2.83
2022-11-02T21:28:46.225Z,2.50
2022-11-02T21:31:57.493Z,2.50
2022-11-02T21:34:30.339Z,2.40
2022-11-02T21:36:58.999Z,2.37
2022-11-02T21:39:29.354Z,2.33
2022-11-02T21:42:05.835Z,2.30
2022-11-02T21:44:34.133Z,2.57
2022-11-02T21:47:04.265Z,2.20
2022-11-02T21:49:33.209Z,2.80
2022-11-02T21:52:04.883Z,2.80
2022-11-02T21:54:34.641Z,2.53
2022-11-02T21:57:04.736Z,2.17
2022-11-02T21:59:34.334Z,2.40
2022-11-02T22:02:02.969Z,2.67
2022-11-02T22:04:32.185Z,2.93
2022-11-02T22:07:03.356Z,2.50
2022-11-02T22:09:31.566Z,2.50
2022-11-02T22:12:38.948Z,2.43
2022-11-02T22:15:13.509Z,2.17
2022-11-02T22:17:49.750Z,2.33
2022-11-02T22:20:18.529Z,1.90
2022-11-02T22:23:07.873Z,2.83
2022-11-02T22:25:38.698Z,2.33
2022-11-02T22:28:13.672Z,2.90
2022-11-02T22:30:42.918Z,2.00
2022-11-02T22:33:12.593Z,2.10
2022-11-02T22:35:41.079Z,3.20
2022-11-02T22:38:29.649Z,2.20
2022-11-02T22:41:01.292Z,2.03
2022-11-02T22:43:31.053Z,2.40
2022-11-02T22:46:23.056Z,2.50
2022-11-02T22:49:06.453Z,2.50
2022-11-02T22:51:38.596Z,2.37
2022-11-02T22:54:09.682Z,2.53
2022-11-02T22:56:38.479Z,2.30
2022-11-02T22:59:09.913Z,2.73
2022-11-02T23:01:41.161Z,2.10
2022-11-02T23:04:09.855Z,2.43
2022-11-02T23:06:42.771Z,2.47
2022-11-02T23:09:12.683Z,3.13
2022-11-02T23:11:40.842Z,2.60
2022-11-02T23:14:12.693Z,2.70
2022-11-02T23:16:43.776Z,2.27
2022-11-02T23:19:29.946Z,2.50
2022-11-02T23:22:17.893Z,2.00
2022-11-02T23:25:07.234Z,1.93
2022-11-02T23:27:58.759Z,2.57
2022-11-02T23:30:48.638Z,2.50
2022-11-02T23:33:20.660Z,2.23
2022-11-02T23:36:06.389Z,2.67
2022-11-02T23:38:48.311Z,2.20
2022-11-02T23:41:18.726Z,1.87
2022-11-02T23:43:48.400Z,2.37
2022-11-02T23:46:20.642Z,2.60
2022-11-02T23:48:52.713Z,2.53
2022-11-02T23:51:39.364Z,2.90
2022-11-02T23:54:25.267Z,2.30
2022-11-02T23:56:53.866Z,2.63
2022-11-02T23:59:22.479Z,2.10
